Time;durP1;ratioP1;P1;durP2;ratioP2;P2;SDS_P1;SDS_P2;PMS_P1;PMS_P2;Temp;Humidity;BMP_temperature;BMP_pressure;BME280_temperature;BME280_humidity;BME280_pressure;Samples;Min_cycle;Max_cycle;Signal;HPM_P1;HPM_P2
2023/03/13 00:01:29;;;;;;;62.83;33.40;;;;;;;;;;4921367;29;20035;-89
2023/03/13 00:03:55;;;;;;;64.47;34.08;;;;;;;;;;4921012;29;20399;-88
2023/03/13 00:06:32;;;;;;;56.38;33.03;;;;;;;;;;4921598;29;20024;-88
2023/03/13 00:09:01;;;;;;;81.55;39.42;;;;;;;;;;4921094;29;20127;-88
2023/03/13 00:11:27;;;;;;;110.30;50.97;;;;;;;;;;4921551;29;20035;-89
2023/03/13 00:13:54;;;;;;;105.25;52.90;;;;;;;;;;4920970;29;20115;-88
2023/03/13 00:16:20;;;;;;;77.15;40.97;;;;;;;;;;4921280;29;20036;-89
2023/03/13 00:18:47;;;;;;;99.85;49.88;;;;;;;;;;4920339;29;20020;-89
2023/03/13 00:21:14;;;;;;;95.60;49.50;;;;;;;;;;4921508;29;20296;-88
2023/03/13 00:23:40;;;;;;;82.00;42.38;;;;;;;;;;4919801;29;20064;-89
2023/03/13 00:26:09;;;;;;;71.50;39.28;;;;;;;;;;4921128;29;20095;-89
2023/03/13 00:28:36;;;;;;;74.53;39.30;;;;;;;;;;4920816;29;20028;-88
2023/03/13 00:34:05;;;;;;;53.83;30.02;;;;;;;;;;4921067;29;20451;-88
2023/03/13 00:36:33;;;;;;;81.35;41.08;;;;;;;;;;4920128;29;20032;-89
2023/03/13 00:38:59;;;;;;;70.15;35.78;;;;;;;;;;4921059;29;20499;-90
2023/03/13 00:41:27;;;;;;;74.85;36.90;;;;;;;;;;4921286;29;20047;-90
2023/03/13 00:43:53;;;;;;;81.38;42.40;;;;;;;;;;4921011;29;20068;-91
2023/03/13 00:49:23;;;;;;;73.22;39.10;;;;;;;;;;4902245;29;20126;-90
2023/03/13 00:51:49;;;;;;;95.50;46.33;;;;;;;;;;4902253;29;20112;-90
2023/03/13 00:54:15;;;;;;;69.95;37.03;;;;;;;;;;4901087;29;20040;-88
2023/03/13 00:56:41;;;;;;;79.15;39.35;;;;;;;;;;4902017;29;20033;-90
2023/03/13 00:59:07;;;;;;;112.45;50.55;;;;;;;;;;4900994;29;20365;-89
2023/03/13 01:04:37;;;;;;;63.95;33.78;;;;;;;;;;4903212;29;20160;-91
2023/03/13 01:07:03;;;;;;;97.78;47.75;;;;;;;;;;4904387;29;20029;-91
2023/03/13 01:09:29;;;;;;;127.80;62.08;;;;;;;;;;4905661;29;20028;-90
2023/03/13 01:11:55;;;;;;;174.25;80.65;;;;;;;;;;4905380;29;20029;-90
2023/03/13 01:14:21;;;;;;;133.95;65.63;;;;;;;;;;4905208;29;20127;-90
2023/03/13 01:16:47;;;;;;;113.53;57.15;;;;;;;;;;4905626;29;20058;-89
2023/03/13 01:19:15;;;;;;;77.07;39.63;;;;;;;;;;4905300;29;20029;-90
2023/03/13 01:21:42;;;;;;;47.83;28.73;;;;;;;;;;4905622;29;20028;-90
2023/03/13 01:24:08;;;;;;;54.20;31.85;;;;;;;;;;4905173;29;20035;-90
2023/03/13 01:26:34;;;;;;;84.18;44.60;;;;;;;;;;4905364;29;20142;-90
2023/03/13 01:29:00;;;;;;;57.58;32.20;;;;;;;;;;4904825;29;20043;-89
2023/03/13 01:32:03;;;;;;;47.75;28.33;;;;;;;;;;4905260;29;20060;-90
2023/03/13 01:34:29;;;;;;;;;;;;;;;;;;4905625;29;20301;-89
2023/03/13 01:36:55;;;;;;;41.85;24.52;;;;;;;;;;4905147;29;19914;-89
2023/03/13 01:39:21;;;;;;;58.50;32.42;;;;;;;;;;4905046;29;20056;-89
2023/03/13 01:41:47;;;;;;;77.03;40.35;;;;;;;;;;4903785;29;20032;-89
2023/03/13 01:44:20;;;;;;;52.80;30.35;;;;;;;;;;4903475;29;20036;-89
2023/03/13 01:47:05;;;;;;;42.75;25.67;;;;;;;;;;4914724;29;20036;-89
2023/03/13 01:49:32;;;;;;;39.63;23.85;;;;;;;;;;4923509;29;20419;-88
2023/03/13 01:52:04;;;;;;;47.05;26.85;;;;;;;;;;4923385;29;20028;-88
2023/03/13 01:54:32;;;;;;;41.97;24.90;;;;;;;;;;4923319;29;20052;-88
2023/03/13 01:57:18;;;;;;;40.67;23.42;;;;;;;;;;4923712;29;20027;-88
2023/03/13 02:00:02;;;;;;;42.25;24.02;;;;;;;;;;4923619;29;20039;-88
2023/03/13 02:02:29;;;;;;;40.47;23.88;;;;;;;;;;4922057;29;20139;-88
2023/03/13 02:04:57;;;;;;;38.38;24.45;;;;;;;;;;4923321;29;20035;-88
2023/03/13 02:07:26;;;;;;;45.55;22.45;;;;;;;;;;4922041;29;20092;-88
2023/03/13 02:09:54;;;;;;;32.53;20.50;;;;;;;;;;4923018;29;20032;-92
2023/03/13 02:12:33;;;;;;;38.00;21.38;;;;;;;;;;4922144;29;20032;-92
2023/03/13 02:18:03;;;;;;;37.88;21.20;;;;;;;;;;4923458;29;20030;-92
2023/03/13 02:20:29;;;;;;;57.50;29.50;;;;;;;;;;4923336;29;20099;-91
2023/03/13 02:22:55;;;;;;;63.85;33.15;;;;;;;;;;4923062;29;20032;-92
2023/03/13 02:25:24;;;;;;;53.05;27.83;;;;;;;;;;4916145;29;20039;-91
2023/03/13 02:27:51;;;;;;;41.63;24.65;;;;;;;;;;4902883;29;20063;-90
2023/03/13 02:30:18;;;;;;;47.97;26.90;;;;;;;;;;4918091;29;20035;-89
2023/03/13 02:32:45;;;;;;;70.85;36.30;;;;;;;;;;4922932;29;20423;-89
2023/03/13 02:35:13;;;;;;;54.35;30.42;;;;;;;;;;4922717;29;20020;-90
2023/03/13 02:37:42;;;;;;;42.17;25.38;;;;;;;;;;4922938;29;20060;-89
2023/03/13 02:40:13;;;;;;;41.97;25.73;;;;;;;;;;4922971;29;20035;-89
2023/03/13 02:42:40;;;;;;;46.33;26.60;;;;;;;;;;4922843;29;20028;-89
2023/03/13 02:45:07;;;;;;;47.00;27.27;;;;;;;;;;4914295;29;20028;-89
2023/03/13 02:47:33;;;;;;;43.63;24.65;;;;;;;;;;4903721;29;20076;-89
2023/03/13 02:49:59;;;;;;;46.88;26.63;;;;;;;;;;4903752;29;20029;-89
2023/03/13 02:52:29;;;;;;;45.22;27.08;;;;;;;;;;4903685;29;20024;-90
2023/03/13 02:54:58;;;;;;;42.58;23.02;;;;;;;;;;4903466;29;20029;-89
2023/03/13 02:57:24;;;;;;;42.85;25.23;;;;;;;;;;4902505;29;20024;-89
2023/03/13 02:59:50;;;;;;;48.05;26.20;;;;;;;;;;4903572;29;20519;-88
2023/03/13 03:02:16;;;;;;;54.83;28.40;;;;;;;;;;4902270;29;20088;-90
2023/03/13 03:04:42;;;;;;;50.97;27.83;;;;;;;;;;4910792;29;20036;-89
2023/03/13 03:07:09;;;;;;;57.70;30.50;;;;;;;;;;4922174;29;20039;-90
2023/03/13 03:09:35;;;;;;;87.97;42.72;;;;;;;;;;4921073;29;20034;-89
2023/03/13 03:12:01;;;;;;;94.45;48.10;;;;;;;;;;4922087;29;20028;-90
2023/03/13 03:14:27;;;;;;;66.30;34.72;;;;;;;;;;4922354;29;20031;-91
2023/03/13 03:19:56;;;;;;;63.85;32.13;;;;;;;;;;4922259;29;20095;-90
2023/03/13 03:22:22;;;;;;;67.35;32.70;;;;;;;;;;4921041;29;20095;-90
2023/03/13 03:24:48;;;;;;;59.03;28.20;;;;;;;;;;4920557;29;20024;-89
2023/03/13 03:27:14;;;;;;;44.10;25.67;;;;;;;;;;4921210;29;20032;-90
2023/03/13 03:29:40;;;;;;;47.85;25.48;;;;;;;;;;4920838;29;20038;-91
2023/03/13 03:35:10;;;;;;;42.63;24.23;;;;;;;;;;4922016;29;20095;-91
2023/03/13 03:37:36;;;;;;;37.90;22.63;;;;;;;;;;4921577;29;20352;-90
2023/03/13 03:40:05;;;;;;;41.20;22.38;;;;;;;;;;4921917;29;20028;-90
2023/03/13 03:42:31;;;;;;;40.70;22.33;;;;;;;;;;4919901;29;20044;-90
2023/03/13 03:44:57;;;;;;;39.72;21.27;;;;;;;;;;4920119;29;20443;-90
2023/03/13 03:47:23;;;;;;;36.50;21.23;;;;;;;;;;4921730;29;20039;-90
2023/03/13 03:49:49;;;;;;;36.30;21.52;;;;;;;;;;4921463;29;20032;-90
2023/03/13 03:52:16;;;;;;;37.13;22.65;;;;;;;;;;4920242;29;20052;-90
2023/03/13 03:54:42;;;;;;;36.10;22.58;;;;;;;;;;4922254;29;20024;-91
2023/03/13 03:57:08;;;;;;;38.30;22.38;;;;;;;;;;4921810;29;20407;-90
2023/03/13 03:59:34;;;;;;;69.32;33.67;;;;;;;;;;4921304;29;20056;-90
2023/03/13 04:02:00;;;;;;;67.65;33.70;;;;;;;;;;4920545;29;20060;-90
2023/03/13 04:04:27;;;;;;;44.67;26.65;;;;;;;;;;4921500;29;20411;-90
2023/03/13 04:06:53;;;;;;;38.22;22.08;;;;;;;;;;4921639;29;20035;-90
2023/03/13 04:09:19;;;;;;;31.67;19.48;;;;;;;;;;4921141;29;20062;-89
2023/03/13 04:11:45;;;;;;;35.50;21.75;;;;;;;;;;4920059;29;20027;-90
2023/03/13 04:14:11;;;;;;;31.67;20.08;;;;;;;;;;4921296;29;20063;-90
2023/03/13 04:16:37;;;;;;;32.22;19.90;;;;;;;;;;4921583;29;20198;-89
2023/03/13 04:19:03;;;;;;;33.00;21.17;;;;;;;;;;4904755;29;20024;-90
2023/03/13 04:21:29;;;;;;;32.00;20.50;;;;;;;;;;4921297;29;20038;-90
2023/03/13 04:23:55;;;;;;;35.08;20.20;;;;;;;;;;4921199;29;20039;-89
2023/03/13 04:26:21;;;;;;;33.17;19.38;;;;;;;;;;4920924;29;20070;-89
2023/03/13 04:28:47;;;;;;;36.88;21.95;;;;;;;;;;4907310;29;20077;-91
2023/03/13 04:31:13;;;;;;;44.45;24.27;;;;;;;;;;4903353;29;20036;-92
2023/03/13 04:33:39;;;;;;;36.67;21.08;;;;;;;;;;4940332;29;20032;-89
2023/03/13 04:36:06;;;;;;;24.95;16.55;;;;;;;;;;4940537;29;20019;-90
2023/03/13 04:38:32;;;;;;;24.90;16.58;;;;;;;;;;4936697;29;20028;-91
2023/03/13 04:40:58;;;;;;;24.98;16.20;;;;;;;;;;4920423;29;20032;-86
2023/03/13 04:43:24;;;;;;;24.08;15.02;;;;;;;;;;4922584;29;20031;-88
2023/03/13 04:46:08;;;;;;;23.13;14.40;;;;;;;;;;4938708;29;20106;-88
2023/03/13 04:48:34;;;;;;;24.23;15.98;;;;;;;;;;4913430;29;20033;-87
2023/03/13 04:51:00;;;;;;;26.92;14.80;;;;;;;;;;4913976;29;20044;-87
2023/03/13 04:53:26;;;;;;;32.20;18.35;;;;;;;;;;4924869;29;20036;-88
2023/03/13 04:55:52;;;;;;;35.35;20.70;;;;;;;;;;4924866;29;20031;-88
2023/03/13 04:58:18;;;;;;;40.65;21.90;;;;;;;;;;4924491;29;20040;-88
2023/03/13 05:07:05;;;;;;;63.38;31.20;;;;;;;;;;4924706;29;20039;-86
2023/03/13 05:09:31;;;;;;;59.03;27.65;;;;;;;;;;4923105;29;20063;-87
2023/03/13 05:11:59;;;;;;;68.20;28.30;;;;;;;;;;4904192;29;20024;-86
2023/03/13 05:14:25;;;;;;;60.28;25.27;;;;;;;;;;4905361;29;20036;-86
2023/03/13 05:16:51;;;;;;;56.75;24.92;;;;;;;;;;4905457;29;20017;-86
2023/03/13 05:19:17;;;;;;;46.35;21.50;;;;;;;;;;4905337;29;20052;-86
2023/03/13 05:21:43;;;;;;;43.22;19.88;;;;;;;;;;4904052;29;20044;-86
2023/03/13 05:24:09;;;;;;;38.13;19.30;;;;;;;;;;4905034;29;20021;-86
2023/03/13 05:26:35;;;;;;;51.13;22.15;;;;;;;;;;4904975;29;20436;-86
2023/03/13 05:29:01;;;;;;;30.65;17.95;;;;;;;;;;4904753;29;20059;-87
2023/03/13 05:31:46;;;;;;;29.90;17.33;;;;;;;;;;4903830;29;20044;-86
2023/03/13 05:34:12;;;;;;;30.15;17.02;;;;;;;;;;4905091;29;20052;-86
2023/03/13 05:36:38;;;;;;;27.88;17.33;;;;;;;;;;4904836;29;20052;-86
2023/03/13 05:39:04;;;;;;;31.35;19.60;;;;;;;;;;4905177;29;20039;-86
2023/03/13 05:41:30;;;;;;;36.42;20.58;;;;;;;;;;4904970;29;20021;-86
2023/03/13 05:43:56;;;;;;;34.53;20.02;;;;;;;;;;4904700;29;20029;-86
2023/03/13 05:46:22;;;;;;;40.47;21.60;;;;;;;;;;4904763;29;20077;-87
2023/03/13 05:48:48;;;;;;;42.08;22.63;;;;;;;;;;4906879;29;20024;-86
2023/03/13 05:51:14;;;;;;;42.50;23.27;;;;;;;;;;4923071;29;20075;-87
2023/03/13 05:53:40;;;;;;;40.22;23.45;;;;;;;;;;4906903;29;20016;-87
2023/03/13 05:56:06;;;;;;;45.15;23.67;;;;;;;;;;4922876;29;20032;-87
2023/03/13 05:58:32;;;;;;;44.88;24.92;;;;;;;;;;4923534;29;20067;-87
2023/03/13 06:00:58;;;;;;;45.60;27.00;;;;;;;;;;4923240;29;20036;-88
2023/03/13 06:03:24;;;;;;;39.97;23.67;;;;;;;;;;4922353;29;20080;-88
2023/03/13 06:05:56;;;;;;;45.40;24.75;;;;;;;;;;4921835;29;20032;-87
2023/03/13 06:08:22;;;;;;;49.03;26.15;;;;;;;;;;4917267;29;20033;-87
2023/03/13 06:10:48;;;;;;;55.75;28.77;;;;;;;;;;4904411;29;20080;-88
2023/03/13 06:13:14;;;;;;;52.67;27.27;;;;;;;;;;4905367;29;20036;-88
2023/03/13 06:18:44;;;;;;;46.58;25.48;;;;;;;;;;4905195;29;20023;-89
2023/03/13 06:21:10;;;;;;;46.42;23.85;;;;;;;;;;4905422;29;20161;-88
2023/03/13 06:23:36;;;;;;;46.00;23.92;;;;;;;;;;4923237;29;20024;-88
2023/03/13 06:26:02;;;;;;;51.00;24.65;;;;;;;;;;4923145;29;20036;-89
2023/03/13 06:28:28;;;;;;;45.28;23.95;;;;;;;;;;4906101;29;20342;-89
2023/03/13 06:30:55;;;;;;;46.83;22.80;;;;;;;;;;4922450;29;20040;-88
2023/03/13 06:33:21;;;;;;;48.38;24.95;;;;;;;;;;4922933;29;20040;-87
2023/03/13 06:35:47;;;;;;;41.83;23.58;;;;;;;;;;4907927;29;20076;-89
2023/03/13 06:38:13;;;;;;;46.08;24.42;;;;;;;;;;4923416;29;20025;-89
2023/03/13 06:40:39;;;;;;;45.28;24.42;;;;;;;;;;4914314;29;20061;-89
2023/03/13 06:43:05;;;;;;;44.78;23.83;;;;;;;;;;4902757;29;20032;-88
2023/03/13 06:48:48;;;;;;;55.47;27.38;;;;;;;;;;4941160;29;20067;-88
2023/03/13 06:51:15;;;;;;;49.63;23.92;;;;;;;;;;4941738;29;20036;-87
2023/03/13 06:53:41;;;;;;;43.17;22.50;;;;;;;;;;4926312;29;20039;-86
2023/03/13 06:56:08;;;;;;;44.53;22.60;;;;;;;;;;4922530;29;20071;-87
2023/03/13 06:58:34;;;;;;;42.33;22.08;;;;;;;;;;4921221;29;20050;-87
2023/03/13 07:04:04;;;;;;;40.60;21.88;;;;;;;;;;4919223;29;20087;-87
2023/03/13 07:06:30;;;;;;;36.33;20.38;;;;;;;;;;4921204;29;20032;-93
2023/03/13 07:08:56;;;;;;;39.90;23.17;;;;;;;;;;4909783;29;20040;-90
2023/03/13 07:11:23;;;;;;;42.97;22.70;;;;;;;;;;4924983;29;20115;-90
2023/03/13 07:13:50;;;;;;;50.08;26.83;;;;;;;;;;4934594;29;20016;-91
2023/03/13 07:16:16;;;;;;;52.70;24.65;;;;;;;;;;4914491;29;20431;-90
2023/03/13 07:18:45;;;;;;;36.67;21.52;;;;;;;;;;4905481;29;20438;-91
2023/03/13 07:21:12;;;;;;;35.85;19.63;;;;;;;;;;4918069;29;20060;-86
2023/03/13 07:23:38;;;;;;;41.97;20.00;;;;;;;;;;4917356;29;20035;-90
2023/03/13 07:26:10;;;;;;;34.90;20.13;;;;;;;;;;4905159;29;20032;-91
2023/03/13 07:28:36;;;;;;;40.70;23.48;;;;;;;;;;4922097;29;20111;-91
2023/03/13 07:31:03;;;;;;;42.88;24.25;;;;;;;;;;4920613;29;20080;-91
2023/03/13 07:33:29;;;;;;;45.33;24.70;;;;;;;;;;4920953;29;20020;-90
2023/03/13 07:35:55;;;;;;;42.03;23.35;;;;;;;;;;4921804;29;20024;-91
2023/03/13 07:38:21;;;;;;;39.22;21.73;;;;;;;;;;4923432;29;20035;-92
2023/03/13 07:40:51;;;;;;;50.13;26.92;;;;;;;;;;4921889;29;20038;-89
2023/03/13 07:43:17;;;;;;;39.78;23.27;;;;;;;;;;4920412;29;20032;-89
2023/03/13 07:45:53;;;;;;;37.80;22.20;;;;;;;;;;4921873;29;20055;-89
2023/03/13 07:48:20;;;;;;;43.55;25.50;;;;;;;;;;4920537;29;20040;-90
2023/03/13 07:50:46;;;;;;;37.28;22.55;;;;;;;;;;4921455;29;20029;-90
2023/03/13 07:53:12;;;;;;;38.70;23.73;;;;;;;;;;4920880;29;20044;-90
2023/03/13 07:55:38;;;;;;;36.70;22.15;;;;;;;;;;4920563;29;20292;-90
2023/03/13 07:58:04;;;;;;;37.40;20.58;;;;;;;;;;4920382;29;20048;-91
2023/03/13 08:13:26;;;;;;;32.75;20.63;;;;;;;;;;5075966;27;20398;-91
2023/03/13 08:15:52;;;;;;;28.67;19.00;;;;;;;;;;5075073;28;20071;-90
2023/03/13 08:21:26;;;;;;;29.27;17.17;;;;;;;;;;5074638;28;20047;-90
2023/03/13 08:23:53;;;;;;;31.88;16.55;;;;;;;;;;5074952;28;20035;-90
2023/03/13 08:26:20;;;;;;;25.90;16.17;;;;;;;;;;5073597;28;20414;-89
2023/03/13 08:28:46;;;;;;;28.27;15.90;;;;;;;;;;5073680;28;20050;-90
2023/03/13 08:34:21;;;;;;;25.33;15.60;;;;;;;;;;5074685;28;20429;-89
2023/03/13 08:36:47;;;;;;;23.42;15.10;;;;;;;;;;5074323;28;20457;-89
2023/03/13 08:39:14;;;;;;;25.27;15.23;;;;;;;;;;5074252;28;20048;-89
2023/03/13 08:41:40;;;;;;;27.85;16.10;;;;;;;;;;5073587;28;20043;-89
2023/03/13 08:44:08;;;;;;;26.33;14.82;;;;;;;;;;5073289;28;20025;-89
2023/03/13 08:46:35;;;;;;;23.83;14.77;;;;;;;;;;5073314;28;20378;-89
2023/03/13 08:49:01;;;;;;;29.52;15.05;;;;;;;;;;5073077;28;20115;-89
2023/03/13 08:51:28;;;;;;;26.15;15.85;;;;;;;;;;5074048;28;20402;-89
2023/03/13 08:53:54;;;;;;;24.85;15.18;;;;;;;;;;5073368;28;20119;-88
2023/03/13 08:56:22;;;;;;;22.77;14.35;;;;;;;;;;5074276;28;20361;-90
2023/03/13 08:58:52;;;;;;;23.60;15.18;;;;;;;;;;5073094;28;20035;-89
2023/03/13 09:01:19;;;;;;;45.90;21.98;;;;;;;;;;5073202;28;20024;-89
2023/03/13 09:03:45;;;;;;;26.60;16.23;;;;;;;;;;5072646;28;20031;-89
2023/03/13 09:06:14;;;;;;;27.58;15.70;;;;;;;;;;5072681;28;20023;-88
2023/03/13 09:08:51;;;;;;;24.02;15.77;;;;;;;;;;5073171;28;20067;-89
2023/03/13 09:11:19;;;;;;;22.83;13.77;;;;;;;;;;5072849;28;20048;-89
2023/03/13 09:13:46;;;;;;;33.75;16.65;;;;;;;;;;5064031;28;20045;-88
2023/03/13 09:16:13;;;;;;;26.30;16.33;;;;;;;;;;5060358;28;20027;-89
2023/03/13 09:18:39;;;;;;;21.02;14.95;;;;;;;;;;5060203;28;20033;-89
2023/03/13 09:21:07;;;;;;;25.83;16.63;;;;;;;;;;5059299;28;20035;-88
2023/03/13 09:23:34;;;;;;;24.42;16.42;;;;;;;;;;5060448;28;20020;-88
2023/03/13 09:26:00;;;;;;;33.17;18.00;;;;;;;;;;5060138;28;20033;-89
2023/03/13 09:28:27;;;;;;;24.77;16.17;;;;;;;;;;5060132;28;20112;-90
2023/03/13 09:30:53;;;;;;;22.75;15.50;;;;;;;;;;5059437;28;20059;-89
2023/03/13 09:45:43;;;;;;;19.83;13.45;;;;;;;;;;5095274;27;20412;-89
2023/03/13 09:48:28;;;;;;;21.80;13.68;;;;;;;;;;5094069;28;20060;-88
2023/03/13 09:51:01;;;;;;;27.98;12.27;;;;;;;;;;5094666;28;20028;-88
2023/03/13 09:53:33;;;;;;;21.77;11.95;;;;;;;;;;5093923;28;20021;-88
2023/03/13 09:56:00;;;;;;;18.35;12.02;;;;;;;;;;5094008;28;20066;-87
2023/03/13 09:58:27;;;;;;;19.13;12.55;;;;;;;;;;5095011;28;20027;-89
2023/03/13 10:00:59;;;;;;;21.05;12.10;;;;;;;;;;5094770;28;20023;-88
2023/03/13 10:03:25;;;;;;;18.02;11.02;;;;;;;;;;5094919;28;20021;-88
2023/03/13 10:06:17;;;;;;;16.05;11.27;;;;;;;;;;5094778;28;20366;-88
2023/03/13 10:08:43;;;;;;;18.15;12.07;;;;;;;;;;5092601;28;20437;-87
2023/03/13 10:11:11;;;;;;;17.02;10.88;;;;;;;;;;5093370;28;20036;-87
2023/03/13 10:13:41;;;;;;;21.42;10.27;;;;;;;;;;5094624;28;20043;-87
2023/03/13 10:16:15;;;;;;;18.38;8.85;;;;;;;;;;5093054;28;20329;-86
2023/03/13 10:18:44;;;;;;;19.90;9.20;;;;;;;;;;5093445;28;20441;-87
2023/03/13 10:21:17;;;;;;;15.82;8.48;;;;;;;;;;5094417;28;20020;-87
2023/03/13 10:23:48;;;;;;;14.98;7.80;;;;;;;;;;5094467;28;20120;-86
2023/03/13 10:26:20;;;;;;;14.60;7.78;;;;;;;;;;5094468;28;20020;-87
2023/03/13 10:28:47;;;;;;;;;;;;;;;;;;5094658;28;20031;-87
2023/03/13 10:31:26;;;;;;;11.38;7.30;;;;;;;;;;5093091;28;20317;-87
2023/03/13 10:33:52;;;;;;;9.93;6.53;;;;;;;;;;5094216;28;20032;-87
2023/03/13 10:36:19;;;;;;;14.10;7.55;;;;;;;;;;5094350;28;20020;-87
2023/03/13 10:38:49;;;;;;;11.40;6.93;;;;;;;;;;5094280;28;20051;-86
2023/03/13 10:41:18;;;;;;;13.05;7.57;;;;;;;;;;5093647;28;20032;-87
2023/03/13 10:43:52;;;;;;;16.92;7.85;;;;;;;;;;5093940;28;20376;-87
2023/03/13 10:46:29;;;;;;;15.35;8.88;;;;;;;;;;5082587;28;20021;-88
2023/03/13 10:48:56;;;;;;;13.30;7.55;;;;;;;;;;5080251;28;20497;-86
2023/03/13 10:51:22;;;;;;;17.15;8.68;;;;;;;;;;5079395;28;20055;-86
2023/03/13 10:53:50;;;;;;;15.77;8.35;;;;;;;;;;5080233;28;20406;-86
2023/03/13 10:56:23;;;;;;;14.85;9.45;;;;;;;;;;5080268;28;20027;-86
2023/03/13 10:58:49;;;;;;;18.58;10.30;;;;;;;;;;5079262;28;20033;-86
2023/03/13 11:01:27;;;;;;;32.90;15.52;;;;;;;;;;5080521;28;20025;-86
2023/03/13 11:03:54;;;;;;;20.75;11.60;;;;;;;;;;5080255;28;20029;-86
2023/03/13 11:06:30;;;;;;;17.67;8.60;;;;;;;;;;5080180;28;20051;-86
2023/03/13 11:09:03;;;;;;;23.13;11.63;;;;;;;;;;5079078;28;20036;-86
2023/03/13 11:11:29;;;;;;;22.92;11.85;;;;;;;;;;5079006;28;20029;-86
2023/03/13 11:14:07;;;;;;;22.38;11.75;;;;;;;;;;5079969;28;20338;-85
2023/03/13 11:16:36;;;;;;;21.25;10.82;;;;;;;;;;5079887;28;20057;-86
2023/03/13 11:19:07;;;;;;;18.35;9.77;;;;;;;;;;5079956;28;20021;-86
2023/03/13 11:21:32;;;;;;;20.40;10.20;;;;;;;;;;5078836;28;20059;-85
2023/03/13 11:24:02;;;;;;;23.83;12.27;;;;;;;;;;5079742;28;20430;-85
2023/03/13 11:26:37;;;;;;;17.88;10.50;;;;;;;;;;5079733;28;20032;-86
2023/03/13 11:29:21;;;;;;;18.33;9.40;;;;;;;;;;5079705;28;20020;-85
2023/03/13 11:31:50;;;;;;;18.92;9.95;;;;;;;;;;5079573;28;20345;-85
2023/03/13 11:34:26;;;;;;;23.65;11.75;;;;;;;;;;5079753;28;20028;-85
2023/03/13 11:37:03;;;;;;;18.70;10.15;;;;;;;;;;5078609;28;20021;-86
2023/03/13 11:39:44;;;;;;;16.25;9.88;;;;;;;;;;5078829;28;20060;-86
2023/03/13 11:42:29;;;;;;;15.93;10.23;;;;;;;;;;5079429;28;20087;-85
2023/03/13 11:45:13;;;;;;;20.75;12.25;;;;;;;;;;5079152;28;20056;-86
2023/03/13 11:47:39;;;;;;;19.83;11.07;;;;;;;;;;5079269;28;20115;-85
2023/03/13 11:50:05;;;;;;;19.08;11.93;;;;;;;;;;5079167;28;20067;-85
2023/03/13 11:52:47;;;;;;;16.90;10.98;;;;;;;;;;5078303;28;20037;-86
2023/03/13 11:55:34;;;;;;;18.10;11.30;;;;;;;;;;5079076;28;20103;-85
2023/03/13 11:58:03;;;;;;;17.33;11.07;;;;;;;;;;5077825;28;20020;-86
2023/03/13 12:00:41;;;;;;;19.25;11.90;;;;;;;;;;5078919;28;20025;-82
2023/03/13 12:03:22;;;;;;;16.58;10.68;;;;;;;;;;5079014;28;20017;-85
2023/03/13 12:05:53;;;;;;;28.08;17.38;;;;;;;;;;5078319;28;20128;-85
2023/03/13 12:08:28;;;;;;;17.02;12.00;;;;;;;;;;5078964;28;20024;-85
2023/03/13 12:10:57;;;;;;;13.75;10.23;;;;;;;;;;5078796;28;20020;-85
2023/03/13 12:13:27;;;;;;;21.50;13.43;;;;;;;;;;5078860;28;20028;-86
2023/03/13 12:16:00;;;;;;;18.10;11.73;;;;;;;;;;5078716;28;20319;-85
2023/03/13 12:18:29;;;;;;;16.65;11.40;;;;;;;;;;5078853;28;20020;-83
2023/03/13 12:21:00;;;;;;;20.67;13.23;;;;;;;;;;5078580;28;20017;-85
2023/03/13 12:23:52;;;;;;;18.15;11.23;;;;;;;;;;5078578;28;20073;-85
2023/03/13 12:26:19;;;;;;;19.02;11.23;;;;;;;;;;5075705;28;20037;-85
2023/03/13 12:28:52;;;;;;;21.77;13.20;;;;;;;;;;5078788;28;20024;-86
2023/03/13 12:31:17;;;;;;;;;;;;;;;;;;5078963;28;20037;-85
2023/03/13 12:33:47;;;;;;;63.90;26.38;;;;;;;;;;5078304;28;19908;-86
2023/03/13 12:36:25;;;;;;;49.90;23.95;;;;;;;;;;5078261;28;20021;-86
2023/03/13 12:39:05;;;;;;;36.58;18.52;;;;;;;;;;5078132;28;20028;-85
2023/03/13 12:41:40;;;;;;;108.18;40.83;;;;;;;;;;5078464;28;20016;-85
2023/03/13 12:44:10;;;;;;;29.35;16.40;;;;;;;;;;5076999;28;20185;-87
2023/03/13 12:46:39;;;;;;;47.75;24.85;;;;;;;;;;5077287;28;20024;-88
2023/03/13 12:49:24;;;;;;;30.55;17.35;;;;;;;;;;5077023;28;20056;-87
2023/03/13 12:52:09;;;;;;;16.48;10.20;;;;;;;;;;5077903;28;20040;-87
2023/03/13 12:54:35;;;;;;;19.35;11.55;;;;;;;;;;5078042;28;20037;-88
2023/03/13 12:57:05;;;;;;;16.52;10.73;;;;;;;;;;5076987;28;20028;-87
2023/03/13 12:59:32;;;;;;;15.70;9.27;;;;;;;;;;5077957;28;20020;-87
2023/03/13 13:01:58;;;;;;;15.10;7.78;;;;;;;;;;5076842;28;20028;-86
2023/03/13 13:04:26;;;;;;;12.85;7.95;;;;;;;;;;5077929;28;20418;-87
2023/03/13 13:07:01;;;;;;;11.80;8.15;;;;;;;;;;5078018;28;20032;-87
2023/03/13 13:09:27;;;;;;;14.40;7.45;;;;;;;;;;5077222;28;20021;-87
2023/03/13 13:11:57;;;;;;;12.23;7.30;;;;;;;;;;5077766;28;20067;-87
2023/03/13 13:14:24;;;;;;;12.52;6.57;;;;;;;;;;5077920;28;20025;-87
2023/03/13 13:16:53;;;;;;;11.15;7.10;;;;;;;;;;5077725;28;20078;-87
2023/03/13 13:19:25;;;;;;;11.70;6.65;;;;;;;;;;5077823;28;20051;-87
2023/03/13 13:21:51;;;;;;;;;;;;;;;;;;5078086;28;20016;-85
2023/03/13 13:24:36;;;;;;;8.57;5.85;;;;;;;;;;5077643;28;19904;-85
2023/03/13 13:27:02;;;;;;;10.20;6.15;;;;;;;;;;5076570;28;20032;-85
2023/03/13 13:29:28;;;;;;;18.42;8.60;;;;;;;;;;5076356;28;20170;-85
2023/03/13 13:31:58;;;;;;;11.40;7.32;;;;;;;;;;5077607;28;20044;-86
2023/03/13 13:34:30;;;;;;;11.98;6.85;;;;;;;;;;5077244;28;20417;-85
2023/03/13 13:36:57;;;;;;;17.17;8.07;;;;;;;;;;5076296;28;20060;-85
2023/03/13 13:39:32;;;;;;;17.48;11.90;;;;;;;;;;5077173;28;20031;-85
2023/03/13 13:41:58;;;;;;;11.57;6.70;;;;;;;;;;5077439;28;20024;-85
2023/03/13 13:44:25;;;;;;;11.88;6.72;;;;;;;;;;5076013;28;20079;-85
2023/03/13 13:46:53;;;;;;;8.88;5.85;;;;;;;;;;5077482;28;20142;-85
2023/03/13 13:49:20;;;;;;;8.13;5.65;;;;;;;;;;5077123;28;20028;-85
2023/03/13 13:51:58;;;;;;;7.88;4.70;;;;;;;;;;5077073;28;20112;-85
2023/03/13 13:54:52;;;;;;;10.38;5.30;;;;;;;;;;5077216;28;20028;-86
2023/03/13 13:57:20;;;;;;;10.38;5.28;;;;;;;;;;5076112;28;20029;-85
2023/03/13 14:00:05;;;;;;;12.60;7.05;;;;;;;;;;5074743;28;20024;-85
2023/03/13 14:02:36;;;;;;;10.52;5.93;;;;;;;;;;5058237;28;20048;-90
2023/03/13 14:05:03;;;;;;;10.00;4.55;;;;;;;;;;5056282;28;20079;-90
2023/03/13 14:07:33;;;;;;;12.80;6.35;;;;;;;;;;5056367;28;20025;-90
2023/03/13 14:10:02;;;;;;;11.95;7.25;;;;;;;;;;5061241;28;20399;-89
2023/03/13 14:12:29;;;;;;;14.02;7.93;;;;;;;;;;5064475;28;20370;-90
2023/03/13 14:15:14;;;;;;;15.85;7.82;;;;;;;;;;5071432;28;20033;-87
2023/03/13 14:17:44;;;;;;;16.92;10.40;;;;;;;;;;5075803;28;20035;-88
2023/03/13 14:20:22;;;;;;;24.35;11.90;;;;;;;;;;5058025;28;20017;-89
2023/03/13 14:22:49;;;;;;;13.95;8.23;;;;;;;;;;5060018;28;20033;-89
2023/03/13 14:25:15;;;;;;;23.17;13.63;;;;;;;;;;5060768;28;20082;-89
2023/03/13 14:27:45;;;;;;;23.85;12.88;;;;;;;;;;5060853;28;20039;-90
2023/03/13 14:30:11;;;;;;;17.27;10.45;;;;;;;;;;5061070;28;20101;-89
2023/03/13 14:32:38;;;;;;;13.20;8.25;;;;;;;;;;5060709;28;20112;-89
2023/03/13 14:37:44;;;;;;;14.52;6.72;;;;;;;;;;5548736;22;20139;-87
2023/03/13 14:40:12;;;;;;;11.32;7.03;;;;;;;;;;5043561;28;20423;-88
2023/03/13 14:42:43;;;;;;;17.63;9.63;;;;;;;;;;5039941;28;20455;-87
2023/03/13 14:45:12;;;;;;;21.35;13.45;;;;;;;;;;5040626;28;20404;-88
2023/03/13 14:47:38;;;;;;;30.85;19.50;;;;;;;;;;5040888;28;20024;-87
2023/03/13 14:50:09;;;;;;;31.13;18.38;;;;;;;;;;5040344;28;20025;-87
2023/03/13 14:52:36;;;;;;;20.08;13.43;;;;;;;;;;5040715;28;20017;-90
2023/03/13 14:55:22;;;;;;;16.75;9.32;;;;;;;;;;5039882;28;20033;-91
2023/03/13 14:58:06;;;;;;;19.35;13.45;;;;;;;;;;4978918;28;20042;-89
2023/03/13 15:00:35;;;;;;;13.02;9.35;;;;;;;;;;4963648;28;20421;-88
2023/03/13 15:03:17;;;;;;;9.88;7.15;;;;;;;;;;4979725;28;20035;-88
2023/03/13 15:05:46;;;;;;;13.60;10.18;;;;;;;;;;4980092;28;20340;-88
2023/03/13 15:08:18;;;;;;;19.67;12.70;;;;;;;;;;4963478;28;20402;-92
2023/03/13 15:10:45;;;;;;;18.08;11.55;;;;;;;;;;4978840;28;20027;-91
2023/03/13 15:13:34;;;;;;;18.50;9.00;;;;;;;;;;4978971;28;20109;-89
2023/03/13 15:16:01;;;;;;;19.10;11.18;;;;;;;;;;4940455;29;20035;-88
2023/03/13 15:18:28;;;;;;;15.25;9.20;;;;;;;;;;4940361;29;20038;-89
2023/03/13 15:20:58;;;;;;;11.90;7.55;;;;;;;;;;4940291;29;20521;-88
2023/03/13 15:23:25;;;;;;;11.77;7.53;;;;;;;;;;4936812;29;20042;-87
2023/03/13 15:25:51;;;;;;;12.50;8.25;;;;;;;;;;4939948;29;20046;-88
2023/03/13 15:28:18;;;;;;;12.43;7.43;;;;;;;;;;4940395;29;20044;-88
2023/03/13 15:30:46;;;;;;;14.57;7.88;;;;;;;;;;4939994;29;20460;-88
2023/03/13 15:33:16;;;;;;;12.60;7.85;;;;;;;;;;4940699;29;20083;-88
2023/03/13 15:35:42;;;;;;;15.27;10.98;;;;;;;;;;4972430;28;20039;-88
2023/03/13 15:38:16;;;;;;;17.40;11.60;;;;;;;;;;4971100;28;20479;-89
2023/03/13 15:40:42;;;;;;;12.68;9.35;;;;;;;;;;4998504;28;20030;-88